Observations
| Time | Sensor | AQI | SAQ | Temp °C | Hum % | Pres Pa | CO μg/m³ | H₂S μg/m³ | NO μg/m³ | NO₂ μg/m³ | O₃ μg/m³ | SO₂ μg/m³ | CO₂e PPM | VOC PPM | PM1 μg/m³ | PM2.5 μg/m³ | PM4 μg/m³ | PM10 μg/m³ | TPS µm |
|---|---|---|---|---|---|---|---|---|---|---|---|---|---|---|---|---|---|---|---|
| Thursday 13 August 2026 | |||||||||||||||||||
| 00:56 | Trim Patrick St | 3 | 21.5 | 62 | 74,453 | 0 | 8.65 | 1.14 | 22.71 | 46.74 | 4.46 | 4.57 | 9.37 | 10.31 | |||||
| 00:55 | Trim Market St | 3 | 22.2 | 59 | 57,913 | 0 | 0 | 1.1 | 16.75 | 63.71 | 0 | 2.14 | 4.09 | 5.44 | |||||
| 00:55 | Trim Patrick St | 3 | 21.5 | 62 | 74,434 | 0 | 8.28 | 1.13 | 23.87 | 47.85 | 4.36 | 5.43 | 9.35 | 10.28 | |||||
| 00:54 | Trim Market St | 3 | 22.2 | 58 | 57,913 | 0 | 0 | 1.1 | 18.04 | 65.03 | 0 | 2.85 | 4.6 | 6.83 | |||||
| 00:54 | Trim Patrick St | 3 | 21.6 | 62 | 74,408 | 0 | 10.13 | 1.12 | 23.32 | 52.8 | 4.72 | 6.29 | 10.82 | 11.9 | |||||
| 00:53 | Trim Market St | 3 | 22.3 | 58 | 57,913 | 0 | 0 | 1.08 | 15.36 | 64.11 | 0 | 0.71 | 3.1 | 4.05 | |||||
| 00:53 | Trim Patrick St | 3 | 21.6 | 62 | 74,377 | 0 | 10.15 | 1.13 | 28.88 | 44.7 | 4.56 | 4.57 | 9.38 | 10.32 | |||||
| 00:52 | Trim Market St | 3 | 22.3 | 58 | 57,913 | 0 | 0 | 1.09 | 17.73 | 65.34 | 0 | 1.43 | 3.61 | 4.74 | |||||
| 00:52 | Trim Patrick St | 3 | 21.6 | 62 | 74,347 | 0 | 7.88 | 1.13 | 22.02 | 48.42 | 4.71 | 3.71 | 9.38 | 10.31 | |||||
| 00:51 | Trim Market St | 3 | 22.3 | 58 | 57,913 | 0 | 0 | 1.09 | 16.75 | 64.8 | 0 | 2.14 | 4.12 | 5.44 | |||||
| 00:50 | Trim Market St | 3 | 22.3 | 58 | 57,911 | 0 | 0 | 1.09 | 16.09 | 64.05 | 0 | 2.14 | 4.12 | 5.43 | |||||
| 00:50 | Trim Patrick St | 3 | 21.7 | 62 | 74,304 | 0 | 6.4 | 1.12 | 19.07 | 49.38 | 4.65 | 4.57 | 9.36 | 10.3 | |||||
| 00:49 | Trim Market St | 3 | 22.4 | 58 | 57,911 | 0 | 0 | 1.07 | 19.51 | 60.45 | 0 | 3.56 | 4.63 | 6.13 | |||||
| 00:49 | Trim Patrick St | 3 | 21.7 | 62 | 74,288 | 0 | 5.93 | 1.11 | 17.1 | 50.25 | 4.47 | 5.43 | 9.36 | 10.3 | |||||
| 00:48 | Trim Market St | 3 | 22.4 | 58 | 57,909 | 0 | 0 | 1.09 | 16.94 | 67.62 | 0 | 2.85 | 4.13 | 5.43 | |||||
| 00:48 | Trim Patrick St | 3 | 21.7 | 62 | 74,265 | 0 | 9.7 | 1.11 | 16.5 | 54.06 | 4.52 | 4.57 | 9.36 | 10.3 | |||||
| 00:47 | Trim Patrick St | 3 | 21.7 | 62 | 74,235 | 0 | 11.45 | 1.11 | 31 | 52.17 | 4.52 | 6.29 | 10.84 | 11.92 | |||||
| 00:46 | Trim Market St | 3 | 22.4 | 58 | 57,909 | 0 | 0 | 1.09 | 15.61 | 64.75 | 0 | 2.14 | 4.64 | 6.13 | |||||
| 00:46 | Trim Patrick St | 3 | 21.8 | 61 | 74,198 | 0 | 11.76 | 1.12 | 27.8 | 57.47 | 4.55 | 4.57 | 7.96 | 8.76 | |||||
| 00:45 | Trim Market St | 3 | 22.4 | 58 | 57,909 | 0 | 0 | 1.09 | 15.62 | 64.4 | 0 | 2.14 | 4.64 | 6.83 | |||||